sensor_id;sensor_type;location;lat;lon;timestamp;pressure;altitude;pressure_sealevel;temperature;humidity
34034;BME280;63481;52.588;22.472;2023-01-30T00:00:30;99854.40;;;-0.81;97.35
34034;BME280;63481;52.588;22.472;2023-01-30T00:01:29;99851.21;;;-0.84;97.34
34034;BME280;63481;52.588;22.472;2023-01-30T00:02:22;99851.80;;;-0.83;97.39
34034;BME280;63481;52.588;22.472;2023-01-30T00:03:15;99846.60;;;-0.81;97.19
34034;BME280;63481;52.588;22.472;2023-01-30T00:04:09;99845.81;;;-0.82;97.31
34034;BME280;63481;52.588;22.472;2023-01-30T00:05:04;99844.11;;;-0.81;97.27
34034;BME280;63481;52.588;22.472;2023-01-30T00:05:57;99842.24;;;-0.80;97.30
34034;BME280;63481;52.588;22.472;2023-01-30T00:06:51;99838.60;;;-0.80;97.24
34034;BME280;63481;52.588;22.472;2023-01-30T00:07:46;99835.88;;;-0.80;97.23
34034;BME280;63481;52.588;22.472;2023-01-30T00:08:39;99833.66;;;-0.81;97.23
34034;BME280;63481;52.588;22.472;2023-01-30T00:09:32;99830.67;;;-0.81;97.29
34034;BME280;63481;52.588;22.472;2023-01-30T00:10:26;99829.23;;;-0.80;97.24
34034;BME280;63481;52.588;22.472;2023-01-30T00:11:19;99828.30;;;-0.80;97.23
34034;BME280;63481;52.588;22.472;2023-01-30T00:12:13;99831.92;;;-0.79;97.25
34034;BME280;63481;52.588;22.472;2023-01-30T00:13:06;99826.17;;;-0.79;97.03
34034;BME280;63481;52.588;22.472;2023-01-30T00:14:00;99827.14;;;-0.80;97.25
34034;BME280;63481;52.588;22.472;2023-01-30T00:14:53;99824.96;;;-0.80;97.34
34034;BME280;63481;52.588;22.472;2023-01-30T00:15:47;99825.73;;;-0.80;97.28
34034;BME280;63481;52.588;22.472;2023-01-30T00:16:40;99824.16;;;-0.80;97.29
34034;BME280;63481;52.588;22.472;2023-01-30T00:17:34;99825.27;;;-0.79;97.31
34034;BME280;63481;52.588;22.472;2023-01-30T00:18:28;99817.61;;;-0.79;97.36
34034;BME280;63481;52.588;22.472;2023-01-30T00:19:21;99816.20;;;-0.79;97.36
34034;BME280;63481;52.588;22.472;2023-01-30T00:20:14;99813.60;;;-0.81;97.39
34034;BME280;63481;52.588;22.472;2023-01-30T00:21:09;99817.94;;;-0.81;97.39
34034;BME280;63481;52.588;22.472;2023-01-30T00:22:03;99817.94;;;-0.81;97.47
34034;BME280;63481;52.588;22.472;2023-01-30T00:22:56;99812.15;;;-0.81;97.55
34034;BME280;63481;52.588;22.472;2023-01-30T00:23:50;99810.53;;;-0.80;97.54
34034;BME280;63481;52.588;22.472;2023-01-30T00:24:43;99803.77;;;-0.81;97.70
34034;BME280;63481;52.588;22.472;2023-01-30T00:25:37;99807.23;;;-0.82;97.62
34034;BME280;63481;52.588;22.472;2023-01-30T00:26:30;99808.09;;;-0.82;97.65
34034;BME280;63481;52.588;22.472;2023-01-30T00:27:23;99800.92;;;-0.82;97.59
34034;BME280;63481;52.588;22.472;2023-01-30T00:28:16;99798.40;;;-0.81;97.67
34034;BME280;63481;52.588;22.472;2023-01-30T00:29:09;99791.64;;;-0.83;97.76
34034;BME280;63481;52.588;22.472;2023-01-30T00:30:03;99791.36;;;-0.84;97.73
34034;BME280;63481;52.588;22.472;2023-01-30T00:30:57;99792.21;;;-0.82;97.56
34034;BME280;63481;52.588;22.472;2023-01-30T00:31:50;99789.34;;;-0.81;97.81
34034;BME280;63481;52.588;22.472;2023-01-30T00:32:44;99790.19;;;-0.81;97.63
34034;BME280;63481;52.588;22.472;2023-01-30T00:33:37;99785.38;;;-0.81;97.71
34034;BME280;63481;52.588;22.472;2023-01-30T00:34:30;99784.79;;;-0.82;97.70
34034;BME280;63481;52.588;22.472;2023-01-30T00:35:24;99779.42;;;-0.81;97.77
34034;BME280;63481;52.588;22.472;2023-01-30T00:36:20;99778.63;;;-0.80;97.82
34034;BME280;63481;52.588;22.472;2023-01-30T00:37:13;99775.91;;;-0.81;97.88
34034;BME280;63481;52.588;22.472;2023-01-30T00:38:06;99773.91;;;-0.80;97.94
34034;BME280;63481;52.588;22.472;2023-01-30T00:38:59;99770.27;;;-0.79;97.93
34034;BME280;63481;52.588;22.472;2023-01-30T00:39:52;99764.77;;;-0.80;97.81
34034;BME280;63481;52.588;22.472;2023-01-30T00:40:46;99764.34;;;-0.79;97.88
34034;BME280;63481;52.588;22.472;2023-01-30T00:41:40;99765.30;;;-0.78;98.07
34034;BME280;63481;52.588;22.472;2023-01-30T00:42:53;99764.98;;;-0.76;97.96
34034;BME280;63481;52.588;22.472;2023-01-30T00:44:05;99764.55;;;-0.78;97.91
34034;BME280;63481;52.588;22.472;2023-01-30T00:45:18;99756.59;;;-0.76;98.00
34034;BME280;63481;52.588;22.472;2023-01-30T00:46:32;99754.14;;;-0.76;97.82
34034;BME280;63481;52.588;22.472;2023-01-30T00:47:47;99754.89;;;-0.77;97.87
34034;BME280;63481;52.588;22.472;2023-01-30T00:48:41;99753.88;;;-0.75;97.89
34034;BME280;63481;52.588;22.472;2023-01-30T00:49:35;99750.33;;;-0.75;97.81
34034;BME280;63481;52.588;22.472;2023-01-30T00:50:28;99747.95;;;-0.76;97.83
34034;BME280;63481;52.588;22.472;2023-01-30T00:51:34;99748.27;;;-0.73;97.87
34034;BME280;63481;52.588;22.472;2023-01-30T00:52:27;99746.59;;;-0.72;97.93
34034;BME280;63481;52.588;22.472;2023-01-30T00:53:20;99743.74;;;-0.72;97.92
34034;BME280;63481;52.588;22.472;2023-01-30T00:54:14;99741.71;;;-0.71;97.95
34034;BME280;63481;52.588;22.472;2023-01-30T00:55:07;99740.33;;;-0.72;97.74
34034;BME280;63481;52.588;22.472;2023-01-30T00:56:01;99736.70;;;-0.73;97.69
34034;BME280;63481;52.588;22.472;2023-01-30T00:56:54;99732.50;;;-0.71;97.86
34034;BME280;63481;52.588;22.472;2023-01-30T00:57:51;99738.05;;;-0.70;97.70
34034;BME280;63481;52.588;22.472;2023-01-30T00:58:44;99729.67;;;-0.71;97.77
34034;BME280;63481;52.588;22.472;2023-01-30T00:59:37;99731.16;;;-0.70;97.61
34034;BME280;63481;52.588;22.472;2023-01-30T01:00:30;99730.06;;;-0.69;97.66
34034;BME280;63481;52.588;22.472;2023-01-30T01:01:23;99727.34;;;-0.70;97.75
34034;BME280;63481;52.588;22.472;2023-01-30T01:02:16;99729.48;;;-0.69;97.62
34034;BME280;63481;52.588;22.472;2023-01-30T01:03:09;99730.09;;;-0.64;97.65
34034;BME280;63481;52.588;22.472;2023-01-30T01:04:01;99719.70;;;-0.61;97.81
34034;BME280;63481;52.588;22.472;2023-01-30T01:04:54;99718.85;;;-0.62;97.69
34034;BME280;63481;52.588;22.472;2023-01-30T01:05:47;99718.70;;;-0.60;97.58
34034;BME280;63481;52.588;22.472;2023-01-30T01:06:40;99714.77;;;-0.59;97.63
34034;BME280;63481;52.588;22.472;2023-01-30T01:07:33;99708.77;;;-0.60;97.47
34034;BME280;63481;52.588;22.472;2023-01-30T01:08:27;99708.02;;;-0.61;97.71
34034;BME280;63481;52.588;22.472;2023-01-30T01:09:20;99707.71;;;-0.60;97.44
34034;BME280;63481;52.588;22.472;2023-01-30T01:10:13;99705.09;;;-0.60;97.52
34034;BME280;63481;52.588;22.472;2023-01-30T01:11:08;99702.70;;;-0.59;97.63
34034;BME280;63481;52.588;22.472;2023-01-30T01:12:02;99698.94;;;-0.60;97.56
34034;BME280;63481;52.588;22.472;2023-01-30T01:12:55;99699.54;;;-0.60;97.57
34034;BME280;63481;52.588;22.472;2023-01-30T01:13:50;99692.71;;;-0.60;97.56
34034;BME280;63481;52.588;22.472;2023-01-30T01:14:43;99691.87;;;-0.59;97.53
34034;BME280;63481;52.588;22.472;2023-01-30T01:15:36;99689.04;;;-0.56;97.39
34034;BME280;63481;52.588;22.472;2023-01-30T01:16:30;99682.32;;;-0.55;97.52
34034;BME280;63481;52.588;22.472;2023-01-30T01:17:23;99677.03;;;-0.53;97.45
34034;BME280;63481;52.588;22.472;2023-01-30T01:18:16;99673.51;;;-0.53;97.48
34034;BME280;63481;52.588;22.472;2023-01-30T01:19:09;99675.33;;;-0.54;97.47
34034;BME280;63481;52.588;22.472;2023-01-30T01:20:01;99672.81;;;-0.53;97.59
34034;BME280;63481;52.588;22.472;2023-01-30T01:20:54;99667.99;;;-0.50;97.62
34034;BME280;63481;52.588;22.472;2023-01-30T01:21:47;99664.64;;;-0.50;97.66
34034;BME280;63481;52.588;22.472;2023-01-30T01:22:39;99662.04;;;-0.50;97.52
34034;BME280;63481;52.588;22.472;2023-01-30T01:23:32;99655.67;;;-0.51;97.50
34034;BME280;63481;52.588;22.472;2023-01-30T01:24:25;99651.16;;;-0.51;97.51
34034;BME280;63481;52.588;22.472;2023-01-30T01:25:19;99652.50;;;-0.51;97.71
34034;BME280;63481;52.588;22.472;2023-01-30T01:26:12;99648.77;;;-0.50;97.41
34034;BME280;63481;52.588;22.472;2023-01-30T01:27:04;99649.92;;;-0.49;97.45
34034;BME280;63481;52.588;22.472;2023-01-30T01:27:57;99642.77;;;-0.48;97.38
34034;BME280;63481;52.588;22.472;2023-01-30T01:28:54;99645.48;;;-0.48;97.48
34034;BME280;63481;52.588;22.472;2023-01-30T01:29:47;99639.94;;;-0.47;97.43
34034;BME280;63481;52.588;22.472;2023-01-30T01:30:41;99634.74;;;-0.46;97.64
34034;BME280;63481;52.588;22.472;2023-01-30T01:31:35;99631.92;;;-0.46;97.67
34034;BME280;63481;52.588;22.472;2023-01-30T01:32:28;99634.95;;;-0.46;97.39
34034;BME280;63481;52.588;22.472;2023-01-30T01:33:20;99627.45;;;-0.44;97.59
34034;BME280;63481;52.588;22.472;2023-01-30T01:34:13;99628.42;;;-0.45;97.48
34034;BME280;63481;52.588;22.472;2023-01-30T01:35:09;99625.38;;;-0.46;97.67
34034;BME280;63481;52.588;22.472;2023-01-30T01:36:03;99626.55;;;-0.46;97.55
34034;BME280;63481;52.588;22.472;2023-01-30T01:36:55;99624.86;;;-0.45;97.66
34034;BME280;63481;52.588;22.472;2023-01-30T01:37:52;99620.95;;;-0.46;97.65
34034;BME280;63481;52.588;22.472;2023-01-30T01:38:44;99619.00;;;-0.47;97.59
34034;BME280;63481;52.588;22.472;2023-01-30T01:39:37;99617.53;;;-0.46;97.47
34034;BME280;63481;52.588;22.472;2023-01-30T01:40:48;99617.34;;;-0.45;97.63
34034;BME280;63481;52.588;22.472;2023-01-30T01:41:54;99613.59;;;-0.42;97.68
34034;BME280;63481;52.588;22.472;2023-01-30T01:42:47;99609.27;;;-0.43;97.57
34034;BME280;63481;52.588;22.472;2023-01-30T01:44:06;99606.02;;;-0.47;97.66
34034;BME280;63481;52.588;22.472;2023-01-30T01:46:19;99598.12;;;-0.50;97.63
34034;BME280;63481;52.588;22.472;2023-01-30T01:47:14;99598.12;;;-0.48;97.71
34034;BME280;63481;52.588;22.472;2023-01-30T01:48:15;99598.78;;;-0.47;97.84
34034;BME280;63481;52.588;22.472;2023-01-30T01:49:24;99600.49;;;-0.47;97.82
34034;BME280;63481;52.588;22.472;2023-01-30T01:50:23;99596.44;;;-0.49;97.88
34034;BME280;63481;52.588;22.472;2023-01-30T01:52:14;99589.46;;;-0.50;97.98
34034;BME280;63481;52.588;22.472;2023-01-30T01:53:10;99587.14;;;-0.50;97.94
34034;BME280;63481;52.588;22.472;2023-01-30T01:54:11;99586.60;;;-0.48;98.06
34034;BME280;63481;52.588;22.472;2023-01-30T01:55:07;99581.09;;;-0.45;98.09
34034;BME280;63481;52.588;22.472;2023-01-30T01:56:01;99581.36;;;-0.45;98.15
34034;BME280;63481;52.588;22.472;2023-01-30T01:56:56;99578.17;;;-0.46;97.97
34034;BME280;63481;52.588;22.472;2023-01-30T01:58:17;99575.48;;;-0.45;98.15
34034;BME280;63481;52.588;22.472;2023-01-30T01:59:29;99574.92;;;-0.43;98.19
34034;BME280;63481;52.588;22.472;2023-01-30T02:00:24;99574.80;;;-0.40;98.15
34034;BME280;63481;52.588;22.472;2023-01-30T02:01:17;99570.69;;;-0.41;98.20
34034;BME280;63481;52.588;22.472;2023-01-30T02:02:13;99568.63;;;-0.41;98.03
34034;BME280;63481;52.588;22.472;2023-01-30T02:03:09;99562.10;;;-0.41;98.03
34034;BME280;63481;52.588;22.472;2023-01-30T02:04:08;99559.86;;;-0.39;98.10
34034;BME280;63481;52.588;22.472;2023-01-30T02:05:03;99554.77;;;-0.40;97.92
34034;BME280;63481;52.588;22.472;2023-01-30T02:06:00;99555.61;;;-0.42;97.90
34034;BME280;63481;52.588;22.472;2023-01-30T02:06:53;99551.13;;;-0.43;97.88
34034;BME280;63481;52.588;22.472;2023-01-30T02:07:51;99548.52;;;-0.41;97.91
34034;BME280;63481;52.588;22.472;2023-01-30T02:08:59;99550.79;;;-0.39;98.05
34034;BME280;63481;52.588;22.472;2023-01-30T02:09:57;99549.69;;;-0.37;97.93
34034;BME280;63481;52.588;22.472;2023-01-30T02:11:22;99550.02;;;-0.37;97.88
34034;BME280;63481;52.588;22.472;2023-01-30T02:12:17;99548.60;;;-0.38;97.91
34034;BME280;63481;52.588;22.472;2023-01-30T02:13:11;99550.20;;;-0.39;97.97
34034;BME280;63481;52.588;22.472;2023-01-30T02:14:05;99542.44;;;-0.40;97.92
34034;BME280;63481;52.588;22.472;2023-01-30T02:14:59;99547.28;;;-0.39;97.92
34034;BME280;63481;52.588;22.472;2023-01-30T02:15:57;99543.75;;;-0.39;98.06
34034;BME280;63481;52.588;22.472;2023-01-30T02:16:51;99540.12;;;-0.39;98.06
34034;BME280;63481;52.588;22.472;2023-01-30T02:17:44;99542.35;;;-0.37;97.92
34034;BME280;63481;52.588;22.472;2023-01-30T02:18:39;99533.52;;;-0.36;98.05
34034;BME280;63481;52.588;22.472;2023-01-30T02:19:48;99532.92;;;-0.37;98.13
34034;BME280;63481;52.588;22.472;2023-01-30T02:21:09;99530.85;;;-0.37;98.15
34034;BME280;63481;52.588;22.472;2023-01-30T02:23:28;99522.14;;;-0.39;98.09
34034;BME280;63481;52.588;22.472;2023-01-30T02:29:38;99518.17;;;-0.41;98.30
34034;BME280;63481;52.588;22.472;2023-01-30T02:30:42;99520.11;;;-0.38;98.42
34034;BME280;63481;52.588;22.472;2023-01-30T02:34:23;99514.32;;;-0.38;98.52
34034;BME280;63481;52.588;22.472;2023-01-30T02:36:50;99508.52;;;-0.37;98.55
34034;BME280;63481;52.588;22.472;2023-01-30T02:41:26;99500.21;;;-0.37;98.60
34034;BME280;63481;52.588;22.472;2023-01-30T02:43:54;99491.56;;;-0.32;98.78
34034;BME280;63481;52.588;22.472;2023-01-30T02:45:15;99489.52;;;-0.29;98.60
34034;BME280;63481;52.588;22.472;2023-01-30T02:46:16;99486.00;;;-0.26;98.54
34034;BME280;63481;52.588;22.472;2023-01-30T02:47:55;99489.15;;;-0.24;98.50
34034;BME280;63481;52.588;22.472;2023-01-30T02:48:43;99484.99;;;-0.23;98.42
34034;BME280;63481;52.588;22.472;2023-01-30T02:49:47;99484.15;;;-0.23;98.13
34034;BME280;63481;52.588;22.472;2023-01-30T02:50:51;99485.86;;;-0.21;98.17
34034;BME280;63481;52.588;22.472;2023-01-30T02:51:48;99481.17;;;-0.21;98.16
34034;BME280;63481;52.588;22.472;2023-01-30T02:52:42;99473.03;;;-0.20;97.96
34034;BME280;63481;52.588;22.472;2023-01-30T02:53:35;99473.44;;;-0.17;97.95
34034;BME280;63481;52.588;22.472;2023-01-30T02:54:28;99472.39;;;-0.17;97.99
34034;BME280;63481;52.588;22.472;2023-01-30T02:55:26;99464.79;;;-0.18;97.84
34034;BME280;63481;52.588;22.472;2023-01-30T02:56:19;99461.80;;;-0.16;97.81
34034;BME280;63481;52.588;22.472;2023-01-30T02:57:22;99462.34;;;-0.15;97.69
34034;BME280;63481;52.588;22.472;2023-01-30T02:58:19;99461.75;;;-0.16;97.70
34034;BME280;63481;52.588;22.472;2023-01-30T02:59:14;99454.57;;;-0.16;97.58
34034;BME280;63481;52.588;22.472;2023-01-30T03:00:08;99453.74;;;-0.14;97.75
34034;BME280;63481;52.588;22.472;2023-01-30T03:02:31;99452.83;;;-0.16;97.40
34034;BME280;63481;52.588;22.472;2023-01-30T03:07:24;99439.97;;;-0.16;97.37
34034;BME280;63481;52.588;22.472;2023-01-30T03:08:27;99442.05;;;-0.16;97.33
34034;BME280;63481;52.588;22.472;2023-01-30T03:09:42;99431.09;;;-0.17;97.38
34034;BME280;63481;52.588;22.472;2023-01-30T03:11:06;99428.63;;;-0.18;97.28
34034;BME280;63481;52.588;22.472;2023-01-30T03:12:04;99427.36;;;-0.18;97.22
34034;BME280;63481;52.588;22.472;2023-01-30T03:14:31;99425.46;;;-0.16;97.20
34034;BME280;63481;52.588;22.472;2023-01-30T03:15:27;99416.56;;;-0.18;97.27
34034;BME280;63481;52.588;22.472;2023-01-30T03:16:26;99421.95;;;-0.16;97.16
34034;BME280;63481;52.588;22.472;2023-01-30T03:17:23;99416.16;;;-0.16;97.03
34034;BME280;63481;52.588;22.472;2023-01-30T03:18:19;99411.80;;;-0.18;97.24
34034;BME280;63481;52.588;22.472;2023-01-30T03:19:13;99410.31;;;-0.20;97.11
34034;BME280;63481;52.588;22.472;2023-01-30T03:20:06;99408.48;;;-0.21;97.23
34034;BME280;63481;52.588;22.472;2023-01-30T03:21:05;99407.26;;;-0.21;97.18
34034;BME280;63481;52.588;22.472;2023-01-30T03:21:59;99410.59;;;-0.21;97.31
34034;BME280;63481;52.588;22.472;2023-01-30T03:22:53;99401.86;;;-0.21;97.27
34034;BME280;63481;52.588;22.472;2023-01-30T03:23:46;99398.41;;;-0.22;97.36
34034;BME280;63481;52.588;22.472;2023-01-30T03:24:40;99390.23;;;-0.22;97.14
34034;BME280;63481;52.588;22.472;2023-01-30T03:25:35;99395.05;;;-0.21;97.17
34034;BME280;63481;52.588;22.472;2023-01-30T03:26:31;99388.77;;;-0.21;97.27
34034;BME280;63481;52.588;22.472;2023-01-30T03:27:27;99386.83;;;-0.23;97.25
34034;BME280;63481;52.588;22.472;2023-01-30T03:28:20;99382.70;;;-0.23;97.36
34034;BME280;63481;52.588;22.472;2023-01-30T03:29:14;99384.01;;;-0.24;97.39
34034;BME280;63481;52.588;22.472;2023-01-30T03:30:08;99384.66;;;-0.24;97.28
34034;BME280;63481;52.588;22.472;2023-01-30T03:31:01;99387.54;;;-0.24;97.29
34034;BME280;63481;52.588;22.472;2023-01-30T03:31:55;99385.15;;;-0.25;97.47
34034;BME280;63481;52.588;22.472;2023-01-30T03:32:48;99384.53;;;-0.26;97.55
34034;BME280;63481;52.588;22.472;2023-01-30T03:33:41;99387.20;;;-0.26;97.60
34034;BME280;63481;52.588;22.472;2023-01-30T03:34:34;99382.13;;;-0.26;97.48
34034;BME280;63481;52.588;22.472;2023-01-30T03:35:28;99378.89;;;-0.27;97.64
34034;BME280;63481;52.588;22.472;2023-01-30T03:36:21;99374.04;;;-0.27;97.66
34034;BME280;63481;52.588;22.472;2023-01-30T03:37:14;99373.19;;;-0.27;97.72
34034;BME280;63481;52.588;22.472;2023-01-30T03:38:08;99370.55;;;-0.29;97.92
34034;BME280;63481;52.588;22.472;2023-01-30T03:39:01;99367.74;;;-0.27;97.89
34034;BME280;63481;52.588;22.472;2023-01-30T03:39:55;99365.32;;;-0.29;97.86
34034;BME280;63481;52.588;22.472;2023-01-30T03:40:49;99366.10;;;-0.30;97.96
34034;BME280;63481;52.588;22.472;2023-01-30T03:41:42;99361.02;;;-0.30;98.00
34034;BME280;63481;52.588;22.472;2023-01-30T03:42:39;99354.87;;;-0.31;98.05
34034;BME280;63481;52.588;22.472;2023-01-30T03:43:32;99355.14;;;-0.32;97.93
34034;BME280;63481;52.588;22.472;2023-01-30T03:44:26;99351.07;;;-0.33;98.26
34034;BME280;63481;52.588;22.472;2023-01-30T03:45:19;99347.53;;;-0.32;98.26
34034;BME280;63481;52.588;22.472;2023-01-30T03:46:13;99339.61;;;-0.34;98.20
34034;BME280;63481;52.588;22.472;2023-01-30T03:47:06;99341.64;;;-0.33;98.36
34034;BME280;63481;52.588;22.472;2023-01-30T03:47:59;99333.20;;;-0.32;98.37
34034;BME280;63481;52.588;22.472;2023-01-30T03:48:52;99333.91;;;-0.33;98.23
34034;BME280;63481;52.588;22.472;2023-01-30T03:49:45;99325.52;;;-0.34;98.47
34034;BME280;63481;52.588;22.472;2023-01-30T03:50:38;99318.25;;;-0.35;98.45
34034;BME280;63481;52.588;22.472;2023-01-30T03:51:31;99316.53;;;-0.33;98.44
34034;BME280;63481;52.588;22.472;2023-01-30T03:52:24;99311.29;;;-0.32;98.46
34034;BME280;63481;52.588;22.472;2023-01-30T03:53:16;99303.66;;;-0.30;98.45
34034;BME280;63481;52.588;22.472;2023-01-30T03:54:09;99304.67;;;-0.30;98.51
34034;BME280;63481;52.588;22.472;2023-01-30T03:55:03;99302.71;;;-0.30;98.62
34034;BME280;63481;52.588;22.472;2023-01-30T03:55:56;99299.54;;;-0.30;98.56
34034;BME280;63481;52.588;22.472;2023-01-30T03:56:52;99299.52;;;-0.27;98.70
34034;BME280;63481;52.588;22.472;2023-01-30T03:57:44;99300.95;;;-0.25;98.57
34034;BME280;63481;52.588;22.472;2023-01-30T03:58:39;99301.16;;;-0.27;98.55
34034;BME280;63481;52.588;22.472;2023-01-30T03:59:42;99300.30;;;-0.24;98.45
34034;BME280;63481;52.588;22.472;2023-01-30T04:00:35;99301.98;;;-0.23;98.46
34034;BME280;63481;52.588;22.472;2023-01-30T04:01:28;99300.34;;;-0.22;98.40
34034;BME280;63481;52.588;22.472;2023-01-30T04:02:20;99304.20;;;-0.21;98.34
34034;BME280;63481;52.588;22.472;2023-01-30T04:03:14;99300.02;;;-0.19;98.44
34034;BME280;63481;52.588;22.472;2023-01-30T04:04:07;99298.58;;;-0.20;98.36
34034;BME280;63481;52.588;22.472;2023-01-30T04:05:00;99301.56;;;-0.17;98.38
34034;BME280;63481;52.588;22.472;2023-01-30T04:05:53;99299.89;;;-0.18;98.29
34034;BME280;63481;52.588;22.472;2023-01-30T04:06:45;99294.48;;;-0.18;98.19
34034;BME280;63481;52.588;22.472;2023-01-30T04:07:38;99291.17;;;-0.18;98.16
34034;BME280;63481;52.588;22.472;2023-01-30T04:08:31;99292.07;;;-0.17;98.15
34034;BME280;63481;52.588;22.472;2023-01-30T04:09:24;99290.69;;;-0.15;98.06
34034;BME280;63481;52.588;22.472;2023-01-30T04:10:17;99289.14;;;-0.14;98.00
34034;BME280;63481;52.588;22.472;2023-01-30T04:11:11;99293.32;;;-0.14;97.80
34034;BME280;63481;52.588;22.472;2023-01-30T04:12:04;99290.11;;;-0.15;97.79
34034;BME280;63481;52.588;22.472;2023-01-30T04:13:00;99292.60;;;-0.14;97.88
34034;BME280;63481;52.588;22.472;2023-01-30T04:13:54;99289.25;;;-0.13;97.73
34034;BME280;63481;52.588;22.472;2023-01-30T04:14:46;99283.13;;;-0.13;97.73
34034;BME280;63481;52.588;22.472;2023-01-30T04:15:47;99287.75;;;-0.12;97.58
34034;BME280;63481;52.588;22.472;2023-01-30T04:17:14;99288.58;;;-0.12;97.41
34034;BME280;63481;52.588;22.472;2023-01-30T04:18:43;99282.54;;;-0.11;97.35
34034;BME280;63481;52.588;22.472;2023-01-30T04:19:42;99279.95;;;-0.15;97.49
34034;BME280;63481;52.588;22.472;2023-01-30T04:20:36;99282.77;;;-0.13;97.34
34034;BME280;63481;52.588;22.472;2023-01-30T04:21:30;99282.38;;;-0.14;97.29
34034;BME280;63481;52.588;22.472;2023-01-30T04:22:22;99278.84;;;-0.13;97.48
34034;BME280;63481;52.588;22.472;2023-01-30T04:23:15;99276.89;;;-0.12;97.36
34034;BME280;63481;52.588;22.472;2023-01-30T04:24:07;99272.62;;;-0.11;97.34
34034;BME280;63481;52.588;22.472;2023-01-30T04:25:00;99269.02;;;-0.10;97.15
34034;BME280;63481;52.588;22.472;2023-01-30T04:25:54;99271.98;;;-0.12;97.14
34034;BME280;63481;52.588;22.472;2023-01-30T04:26:48;99267.84;;;-0.13;97.07
34034;BME280;63481;52.588;22.472;2023-01-30T04:27:40;99263.60;;;-0.14;97.08
34034;BME280;63481;52.588;22.472;2023-01-30T04:28:42;99268.13;;;-0.13;96.99
34034;BME280;63481;52.588;22.472;2023-01-30T04:29:35;99265.09;;;-0.14;97.07
34034;BME280;63481;52.588;22.472;2023-01-30T04:30:28;99270.17;;;-0.11;97.03
34034;BME280;63481;52.588;22.472;2023-01-30T04:31:34;99266.58;;;-0.09;96.92
34034;BME280;63481;52.588;22.472;2023-01-30T04:32:31;99261.69;;;-0.09;96.91
34034;BME280;63481;52.588;22.472;2023-01-30T04:33:24;99264.92;;;-0.10;96.72
34034;BME280;63481;52.588;22.472;2023-01-30T04:34:17;99257.46;;;-0.12;96.78
34034;BME280;63481;52.588;22.472;2023-01-30T04:35:10;99257.32;;;-0.12;96.68
34034;BME280;63481;52.588;22.472;2023-01-30T04:36:03;99258.77;;;-0.13;96.68
34034;BME280;63481;52.588;22.472;2023-01-30T04:36:56;99255.95;;;-0.11;96.62
34034;BME280;63481;52.588;22.472;2023-01-30T04:37:50;99254.70;;;-0.12;96.54
34034;BME280;63481;52.588;22.472;2023-01-30T04:38:45;99248.84;;;-0.13;96.49
34034;BME280;63481;52.588;22.472;2023-01-30T04:39:38;99249.48;;;-0.14;96.41
34034;BME280;63481;52.588;22.472;2023-01-30T04:40:32;99251.16;;;-0.13;96.44
34034;BME280;63481;52.588;22.472;2023-01-30T04:41:25;99249.06;;;-0.13;96.44
34034;BME280;63481;52.588;22.472;2023-01-30T04:42:21;99247.40;;;-0.14;96.31
34034;BME280;63481;52.588;22.472;2023-01-30T04:43:31;99239.77;;;-0.14;96.26
34034;BME280;63481;52.588;22.472;2023-01-30T04:44:37;99243.14;;;-0.15;96.29
34034;BME280;63481;52.588;22.472;2023-01-30T04:45:53;99236.83;;;-0.16;96.16
34034;BME280;63481;52.588;22.472;2023-01-30T04:46:46;99230.44;;;-0.15;96.18
34034;BME280;63481;52.588;22.472;2023-01-30T04:47:40;99233.71;;;-0.15;96.03
34034;BME280;63481;52.588;22.472;2023-01-30T04:48:33;99235.52;;;-0.16;96.14
34034;BME280;63481;52.588;22.472;2023-01-30T04:49:27;99225.48;;;-0.17;96.13
34034;BME280;63481;52.588;22.472;2023-01-30T04:50:20;99223.63;;;-0.17;96.06
34034;BME280;63481;52.588;22.472;2023-01-30T04:51:13;99225.55;;;-0.19;96.08
34034;BME280;63481;52.588;22.472;2023-01-30T04:52:08;99217.14;;;-0.20;96.05
34034;BME280;63481;52.588;22.472;2023-01-30T04:53:02;99223.03;;;-0.20;96.01
34034;BME280;63481;52.588;22.472;2023-01-30T04:53:55;99217.36;;;-0.21;95.98
34034;BME280;63481;52.588;22.472;2023-01-30T04:54:49;99217.20;;;-0.22;96.04
34034;BME280;63481;52.588;22.472;2023-01-30T04:55:43;99211.17;;;-0.23;96.22
34034;BME280;63481;52.588;22.472;2023-01-30T04:56:37;99212.84;;;-0.25;96.30
34034;BME280;63481;52.588;22.472;2023-01-30T04:57:31;99204.98;;;-0.26;96.25
34034;BME280;63481;52.588;22.472;2023-01-30T04:58:24;99203.05;;;-0.25;96.23
34034;BME280;63481;52.588;22.472;2023-01-30T04:59:17;99204.82;;;-0.26;96.34
34034;BME280;63481;52.588;22.472;2023-01-30T05:00:11;99202.63;;;-0.26;96.40
34034;BME280;63481;52.588;22.472;2023-01-30T05:01:15;99195.41;;;-0.29;96.40
34034;BME280;63481;52.588;22.472;2023-01-30T05:02:09;99198.73;;;-0.31;96.38
34034;BME280;63481;52.588;22.472;2023-01-30T05:03:02;99199.27;;;-0.29;96.50
34034;BME280;63481;52.588;22.472;2023-01-30T05:03:56;99195.85;;;-0.28;96.36
34034;BME280;63481;52.588;22.472;2023-01-30T05:04:49;99195.55;;;-0.27;96.46
34034;BME280;63481;52.588;22.472;2023-01-30T05:05:45;99190.97;;;-0.28;96.50
34034;BME280;63481;52.588;22.472;2023-01-30T05:06:39;99188.64;;;-0.28;96.35
34034;BME280;63481;52.588;22.472;2023-01-30T05:07:32;99191.14;;;-0.28;96.33
34034;BME280;63481;52.588;22.472;2023-01-30T05:08:24;99187.20;;;-0.26;96.30
34034;BME280;63481;52.588;22.472;2023-01-30T05:09:17;99184.77;;;-0.24;96.34
34034;BME280;63481;52.588;22.472;2023-01-30T05:10:10;99186.15;;;-0.24;96.22
34034;BME280;63481;52.588;22.472;2023-01-30T05:11:03;99187.23;;;-0.24;96.19
34034;BME280;63481;52.588;22.472;2023-01-30T05:11:56;99183.08;;;-0.23;96.13
34034;BME280;63481;52.588;22.472;2023-01-30T05:12:49;99186.91;;;-0.25;96.12
34034;BME280;63481;52.588;22.472;2023-01-30T05:13:43;99186.05;;;-0.23;96.03
34034;BME280;63481;52.588;22.472;2023-01-30T05:14:35;99181.17;;;-0.23;95.96
34034;BME280;63481;52.588;22.472;2023-01-30T05:15:32;99178.00;;;-0.23;95.84
34034;BME280;63481;52.588;22.472;2023-01-30T05:16:26;99180.33;;;-0.24;95.92
34034;BME280;63481;52.588;22.472;2023-01-30T05:17:21;99176.27;;;-0.25;95.94
34034;BME280;63481;52.588;22.472;2023-01-30T05:18:14;99175.91;;;-0.25;95.93